Terminal Aerodrome Forecast
Issued by NWS

Home | Current Version | Previous Version | Text Only | Print | Product List | Glossary On
Versions: 1 2 3 4 5 6 7 8 9 10 11 12 13 14 15 16 17 18 19 20 21 22 23 24 25 26 27 28 29 30 31 32
000
FTAK31 PAFG 200526
TAFAQT
TAF
PAQT 200526Z 2006/2106 07012KT P6SM SKC
     FM200900 07010KT 2SM BR BKN005
     FM201800 06008KT P6SM FEW008=

USA.gov is the U.S. government's official web portal to all federal, state and local government web resources and services.